Alex, Minnesota
Current Conditions -  °F | °C
As of 11:53 AM on Sunday 25 Jan 2015 (Local Time) from KAXN Reporting Station
Overcast Overcast  
Wind Chill: -4°   Ceiling: 2300
Heat Index: -4°   Visibility: 10mi
Dew Point: -8°   Wind: 3mph
Humidity: 75%   Direction: 110°ESE
Pressure: 30.01"   Gusts: NA
Location:  45.8551°N, 95.4333°W
Report Text: KAXN 251753Z AUTO 11003KT 10SM OVC023 M04/M08 A3001 RMK AO2 SLP183 T10391078 11017 21044 51015
Loading
Personal Weather Stations






























Interactive Weather Map New forecast layout! Learn more

10-Day Weather Forecast

Advertisements
Track Severe Weather on mobile